sensor_id;sensor_type;location;lat;lon;timestamp;temperature;humidity
9414;DHT22;4746;35.664;139.738;2023-01-15T00:00:02;13.90;99.90
9414;DHT22;4746;35.664;139.738;2023-01-15T00:02:32;14.00;99.90
9414;DHT22;4746;35.664;139.738;2023-01-15T00:04:59;14.00;99.90
9414;DHT22;4746;35.664;139.738;2023-01-15T00:07:29;14.10;99.90
9414;DHT22;4746;35.664;139.738;2023-01-15T00:09:57;14.10;99.90
9414;DHT22;4746;35.664;139.738;2023-01-15T00:12:24;14.10;99.90
9414;DHT22;4746;35.664;139.738;2023-01-15T00:14:53;14.10;99.90
9414;DHT22;4746;35.664;139.738;2023-01-15T00:17:23;14.10;99.90
9414;DHT22;4746;35.664;139.738;2023-01-15T00:19:51;14.20;99.90
9414;DHT22;4746;35.664;139.738;2023-01-15T00:22:18;14.20;99.90
9414;DHT22;4746;35.664;139.738;2023-01-15T00:24:46;14.20;99.90
9414;DHT22;4746;35.664;139.738;2023-01-15T00:27:31;14.20;99.90
9414;DHT22;4746;35.664;139.738;2023-01-15T00:30:08;14.30;99.90
9414;DHT22;4746;35.664;139.738;2023-01-15T00:32:37;14.20;99.90
9414;DHT22;4746;35.664;139.738;2023-01-15T00:35:06;14.20;99.90
9414;DHT22;4746;35.664;139.738;2023-01-15T00:37:37;14.20;99.90
9414;DHT22;4746;35.664;139.738;2023-01-15T00:40:05;14.20;99.90
9414;DHT22;4746;35.664;139.738;2023-01-15T00:42:33;14.20;99.90
9414;DHT22;4746;35.664;139.738;2023-01-15T00:45:00;14.20;99.90
9414;DHT22;4746;35.664;139.738;2023-01-15T00:47:40;14.20;99.90
9414;DHT22;4746;35.664;139.738;2023-01-15T00:50:11;14.10;99.90
9414;DHT22;4746;35.664;139.738;2023-01-15T00:52:41;14.10;99.90
9414;DHT22;4746;35.664;139.738;2023-01-15T00:55:08;14.20;99.90
9414;DHT22;4746;35.664;139.738;2023-01-15T00:57:36;14.20;99.90
9414;DHT22;4746;35.664;139.738;2023-01-15T01:00:04;14.20;99.90
9414;DHT22;4746;35.664;139.738;2023-01-15T01:02:32;14.10;99.90
9414;DHT22;4746;35.664;139.738;2023-01-15T01:04:59;14.10;99.90
9414;DHT22;4746;35.664;139.738;2023-01-15T01:07:27;14.00;99.90
9414;DHT22;4746;35.664;139.738;2023-01-15T01:09:55;13.90;99.90
9414;DHT22;4746;35.664;139.738;2023-01-15T01:12:22;13.90;99.90
9414;DHT22;4746;35.664;139.738;2023-01-15T01:14:51;13.90;99.90
9414;DHT22;4746;35.664;139.738;2023-01-15T01:17:19;13.90;99.90
9414;DHT22;4746;35.664;139.738;2023-01-15T01:19:46;13.90;99.90
9414;DHT22;4746;35.664;139.738;2023-01-15T01:22:14;13.90;99.90
9414;DHT22;4746;35.664;139.738;2023-01-15T01:24:41;13.90;99.90
9414;DHT22;4746;35.664;139.738;2023-01-15T01:27:09;13.90;99.90
9414;DHT22;4746;35.664;139.738;2023-01-15T01:29:36;13.90;99.90
9414;DHT22;4746;35.664;139.738;2023-01-15T01:32:04;13.90;99.90
9414;DHT22;4746;35.664;139.738;2023-01-15T01:34:32;13.90;99.90
9414;DHT22;4746;35.664;139.738;2023-01-15T01:36:59;13.90;99.90
9414;DHT22;4746;35.664;139.738;2023-01-15T01:39:27;13.90;99.90
9414;DHT22;4746;35.664;139.738;2023-01-15T01:41:54;13.90;99.90
9414;DHT22;4746;35.664;139.738;2023-01-15T01:47:06;13.90;99.90
9414;DHT22;4746;35.664;139.738;2023-01-15T01:49:39;13.90;99.90
9414;DHT22;4746;35.664;139.738;2023-01-15T01:52:11;14.00;99.90
9414;DHT22;4746;35.664;139.738;2023-01-15T01:54:46;14.00;99.90
9414;DHT22;4746;35.664;139.738;2023-01-15T01:57:16;14.10;99.90
9414;DHT22;4746;35.664;139.738;2023-01-15T01:59:46;14.10;99.90
9414;DHT22;4746;35.664;139.738;2023-01-15T02:02:16;14.10;99.90
9414;DHT22;4746;35.664;139.738;2023-01-15T02:04:48;14.00;99.90
9414;DHT22;4746;35.664;139.738;2023-01-15T02:07:16;14.00;99.90
9414;DHT22;4746;35.664;139.738;2023-01-15T02:09:44;14.00;99.90
9414;DHT22;4746;35.664;139.738;2023-01-15T02:12:33;14.10;99.90
9414;DHT22;4746;35.664;139.738;2023-01-15T02:15:28;14.20;99.90
9414;DHT22;4746;35.664;139.738;2023-01-15T02:21:09;14.20;99.90
9414;DHT22;4746;35.664;139.738;2023-01-15T02:26:56;14.30;99.90
9414;DHT22;4746;35.664;139.738;2023-01-15T02:35:22;14.20;99.90
9414;DHT22;4746;35.664;139.738;2023-01-15T02:38:00;14.30;99.90
9414;DHT22;4746;35.664;139.738;2023-01-15T02:40:33;14.30;99.90
9414;DHT22;4746;35.664;139.738;2023-01-15T02:43:04;14.40;99.90
9414;DHT22;4746;35.664;139.738;2023-01-15T02:45:37;14.40;99.90
9414;DHT22;4746;35.664;139.738;2023-01-15T02:48:14;14.40;99.90
9414;DHT22;4746;35.664;139.738;2023-01-15T02:50:54;14.40;99.90
9414;DHT22;4746;35.664;139.738;2023-01-15T02:53:45;14.40;99.90
9414;DHT22;4746;35.664;139.738;2023-01-15T02:56:19;14.40;99.90
9414;DHT22;4746;35.664;139.738;2023-01-15T02:58:53;14.50;99.90
9414;DHT22;4746;35.664;139.738;2023-01-15T03:01:45;14.50;99.90
9414;DHT22;4746;35.664;139.738;2023-01-15T03:07:21;14.40;99.90
9414;DHT22;4746;35.664;139.738;2023-01-15T03:09:55;14.10;99.90
9414;DHT22;4746;35.664;139.738;2023-01-15T03:12:47;13.90;99.90
9414;DHT22;4746;35.664;139.738;2023-01-15T03:19:21;13.90;99.90
9414;DHT22;4746;35.664;139.738;2023-01-15T03:27:18;13.80;99.90
9414;DHT22;4746;35.664;139.738;2023-01-15T03:29:50;13.70;99.90
9414;DHT22;4746;35.664;139.738;2023-01-15T03:32:39;13.80;99.90
9414;DHT22;4746;35.664;139.738;2023-01-15T03:38:32;13.80;99.90
9414;DHT22;4746;35.664;139.738;2023-01-15T03:44:44;13.90;99.90
9414;DHT22;4746;35.664;139.738;2023-01-15T03:56:07;13.90;99.90
9414;DHT22;4746;35.664;139.738;2023-01-15T03:58:47;13.90;99.90
9414;DHT22;4746;35.664;139.738;2023-01-15T04:01:23;13.90;99.90
9414;DHT22;4746;35.664;139.738;2023-01-15T04:03:58;14.00;99.90
9414;DHT22;4746;35.664;139.738;2023-01-15T04:06:29;14.10;99.90
9414;DHT22;4746;35.664;139.738;2023-01-15T04:09:03;14.20;99.90
9414;DHT22;4746;35.664;139.738;2023-01-15T04:11:34;14.20;99.90
9414;DHT22;4746;35.664;139.738;2023-01-15T04:14:02;14.30;99.90
9414;DHT22;4746;35.664;139.738;2023-01-15T04:16:32;14.30;99.90
9414;DHT22;4746;35.664;139.738;2023-01-15T04:19:02;14.20;99.90
9414;DHT22;4746;35.664;139.738;2023-01-15T04:21:30;14.30;99.90
9414;DHT22;4746;35.664;139.738;2023-01-15T04:23:57;14.30;99.90
9414;DHT22;4746;35.664;139.738;2023-01-15T04:26:25;14.30;99.90
9414;DHT22;4746;35.664;139.738;2023-01-15T04:28:52;14.30;99.90
9414;DHT22;4746;35.664;139.738;2023-01-15T04:31:20;14.30;99.90
9414;DHT22;4746;35.664;139.738;2023-01-15T04:33:47;14.30;99.90
9414;DHT22;4746;35.664;139.738;2023-01-15T04:36:15;14.30;99.90
9414;DHT22;4746;35.664;139.738;2023-01-15T04:38:42;14.20;99.90
9414;DHT22;4746;35.664;139.738;2023-01-15T04:41:10;14.20;99.90
9414;DHT22;4746;35.664;139.738;2023-01-15T04:43:56;14.20;99.90
9414;DHT22;4746;35.664;139.738;2023-01-15T04:46:43;14.20;99.90
9414;DHT22;4746;35.664;139.738;2023-01-15T04:49:15;14.20;99.90
9414;DHT22;4746;35.664;139.738;2023-01-15T04:51:43;14.10;99.90
9414;DHT22;4746;35.664;139.738;2023-01-15T04:54:13;14.10;99.90
9414;DHT22;4746;35.664;139.738;2023-01-15T04:56:48;14.10;99.90
9414;DHT22;4746;35.664;139.738;2023-01-15T04:59:19;14.10;99.90
9414;DHT22;4746;35.664;139.738;2023-01-15T05:01:48;14.00;99.90
9414;DHT22;4746;35.664;139.738;2023-01-15T05:04:16;14.00;99.90
9414;DHT22;4746;35.664;139.738;2023-01-15T05:06:44;13.90;99.90
9414;DHT22;4746;35.664;139.738;2023-01-15T05:09:11;13.90;99.90
9414;DHT22;4746;35.664;139.738;2023-01-15T05:11:40;13.90;99.90
9414;DHT22;4746;35.664;139.738;2023-01-15T05:14:07;13.80;99.90
9414;DHT22;4746;35.664;139.738;2023-01-15T05:16:35;13.70;99.90
9414;DHT22;4746;35.664;139.738;2023-01-15T05:19:05;13.60;99.90
9414;DHT22;4746;35.664;139.738;2023-01-15T05:21:39;13.50;99.90
9414;DHT22;4746;35.664;139.738;2023-01-15T05:24:13;13.50;99.90
9414;DHT22;4746;35.664;139.738;2023-01-15T05:26:43;13.50;99.90
9414;DHT22;4746;35.664;139.738;2023-01-15T05:29:11;13.50;99.90
9414;DHT22;4746;35.664;139.738;2023-01-15T05:31:39;13.50;99.90
9414;DHT22;4746;35.664;139.738;2023-01-15T05:34:09;13.50;99.90
9414;DHT22;4746;35.664;139.738;2023-01-15T05:36:36;13.40;99.90
9414;DHT22;4746;35.664;139.738;2023-01-15T05:39:04;13.50;99.90
9414;DHT22;4746;35.664;139.738;2023-01-15T05:41:32;13.50;99.90
9414;DHT22;4746;35.664;139.738;2023-01-15T05:44:26;13.40;99.90
9414;DHT22;4746;35.664;139.738;2023-01-15T05:46:59;13.40;99.90
9414;DHT22;4746;35.664;139.738;2023-01-15T05:49:33;13.40;99.90
9414;DHT22;4746;35.664;139.738;2023-01-15T05:52:02;13.30;99.90
9414;DHT22;4746;35.664;139.738;2023-01-15T05:54:32;13.30;99.90
9414;DHT22;4746;35.664;139.738;2023-01-15T05:57:01;13.20;99.90
9414;DHT22;4746;35.664;139.738;2023-01-15T05:59:30;13.10;99.90
9414;DHT22;4746;35.664;139.738;2023-01-15T06:01:59;13.10;99.90
9414;DHT22;4746;35.664;139.738;2023-01-15T06:04:26;13.20;99.90
9414;DHT22;4746;35.664;139.738;2023-01-15T06:06:55;13.20;99.90
9414;DHT22;4746;35.664;139.738;2023-01-15T06:09:24;13.20;99.90
9414;DHT22;4746;35.664;139.738;2023-01-15T06:11:53;13.10;99.90
9414;DHT22;4746;35.664;139.738;2023-01-15T06:14:21;13.10;99.90
9414;DHT22;4746;35.664;139.738;2023-01-15T06:16:49;13.10;99.90
9414;DHT22;4746;35.664;139.738;2023-01-15T06:19:17;13.10;99.90
9414;DHT22;4746;35.664;139.738;2023-01-15T06:21:44;13.00;99.90
9414;DHT22;4746;35.664;139.738;2023-01-15T06:24:12;13.00;99.90
9414;DHT22;4746;35.664;139.738;2023-01-15T06:26:41;12.90;99.90
9414;DHT22;4746;35.664;139.738;2023-01-15T06:29:09;12.90;99.90
9414;DHT22;4746;35.664;139.738;2023-01-15T06:31:37;12.90;99.90
9414;DHT22;4746;35.664;139.738;2023-01-15T06:34:04;12.80;99.90
9414;DHT22;4746;35.664;139.738;2023-01-15T06:36:32;12.80;99.90
9414;DHT22;4746;35.664;139.738;2023-01-15T06:39:00;12.80;99.90
9414;DHT22;4746;35.664;139.738;2023-01-15T06:41:28;12.80;99.90
9414;DHT22;4746;35.664;139.738;2023-01-15T06:44:15;12.80;99.90
9414;DHT22;4746;35.664;139.738;2023-01-15T06:47:18;12.80;99.90
9414;DHT22;4746;35.664;139.738;2023-01-15T06:49:48;12.80;99.90
9414;DHT22;4746;35.664;139.738;2023-01-15T06:52:23;12.70;99.90
9414;DHT22;4746;35.664;139.738;2023-01-15T06:54:52;12.70;99.90
9414;DHT22;4746;35.664;139.738;2023-01-15T06:57:20;12.50;99.90
9414;DHT22;4746;35.664;139.738;2023-01-15T06:59:48;12.50;99.90
9414;DHT22;4746;35.664;139.738;2023-01-15T07:02:16;12.40;99.90
9414;DHT22;4746;35.664;139.738;2023-01-15T07:04:44;12.40;99.90
9414;DHT22;4746;35.664;139.738;2023-01-15T07:07:15;12.50;99.90
9414;DHT22;4746;35.664;139.738;2023-01-15T07:09:44;12.40;99.90
9414;DHT22;4746;35.664;139.738;2023-01-15T07:12:12;12.40;99.90
9414;DHT22;4746;35.664;139.738;2023-01-15T07:14:40;12.40;99.90
9414;DHT22;4746;35.664;139.738;2023-01-15T07:17:08;12.40;99.90
9414;DHT22;4746;35.664;139.738;2023-01-15T07:19:36;12.30;99.90
9414;DHT22;4746;35.664;139.738;2023-01-15T07:22:04;12.20;99.90
9414;DHT22;4746;35.664;139.738;2023-01-15T07:24:35;12.20;99.90
9414;DHT22;4746;35.664;139.738;2023-01-15T07:27:03;12.20;99.90
9414;DHT22;4746;35.664;139.738;2023-01-15T07:29:31;12.20;99.90
9414;DHT22;4746;35.664;139.738;2023-01-15T07:31:59;12.20;99.90
9414;DHT22;4746;35.664;139.738;2023-01-15T07:34:27;12.10;99.90
9414;DHT22;4746;35.664;139.738;2023-01-15T07:36:54;12.10;99.90
9414;DHT22;4746;35.664;139.738;2023-01-15T07:39:22;12.10;99.90
9414;DHT22;4746;35.664;139.738;2023-01-15T07:41:49;12.10;99.90
9414;DHT22;4746;35.664;139.738;2023-01-15T07:44:35;12.10;99.90
9414;DHT22;4746;35.664;139.738;2023-01-15T07:47:22;12.20;99.90
9414;DHT22;4746;35.664;139.738;2023-01-15T07:50:13;12.10;99.90
9414;DHT22;4746;35.664;139.738;2023-01-15T07:52:45;12.10;99.90
9414;DHT22;4746;35.664;139.738;2023-01-15T07:55:13;12.10;99.90
9414;DHT22;4746;35.664;139.738;2023-01-15T07:57:41;12.10;99.90
9414;DHT22;4746;35.664;139.738;2023-01-15T08:00:12;12.00;99.90
9414;DHT22;4746;35.664;139.738;2023-01-15T08:02:42;12.10;99.90
9414;DHT22;4746;35.664;139.738;2023-01-15T08:05:11;12.10;99.90
9414;DHT22;4746;35.664;139.738;2023-01-15T08:07:40;12.00;99.90
9414;DHT22;4746;35.664;139.738;2023-01-15T08:10:10;12.00;99.90
9414;DHT22;4746;35.664;139.738;2023-01-15T08:12:39;11.90;99.90
9414;DHT22;4746;35.664;139.738;2023-01-15T08:15:36;11.90;99.90
9414;DHT22;4746;35.664;139.738;2023-01-15T08:18:05;11.90;99.90
9414;DHT22;4746;35.664;139.738;2023-01-15T08:20:34;11.90;99.90
9414;DHT22;4746;35.664;139.738;2023-01-15T08:23:02;11.90;99.90
9414;DHT22;4746;35.664;139.738;2023-01-15T08:25:30;11.80;99.90
9414;DHT22;4746;35.664;139.738;2023-01-15T08:28:01;11.80;99.90
9414;DHT22;4746;35.664;139.738;2023-01-15T08:30:29;11.70;99.90
9414;DHT22;4746;35.664;139.738;2023-01-15T08:33:00;11.70;99.90
9414;DHT22;4746;35.664;139.738;2023-01-15T08:35:28;11.70;99.90
9414;DHT22;4746;35.664;139.738;2023-01-15T08:37:57;11.70;99.90
9414;DHT22;4746;35.664;139.738;2023-01-15T08:40:25;11.60;99.90
9414;DHT22;4746;35.664;139.738;2023-01-15T08:42:53;11.50;99.90
9414;DHT22;4746;35.664;139.738;2023-01-15T08:45:21;11.50;99.90
9414;DHT22;4746;35.664;139.738;2023-01-15T08:47:48;11.30;99.90
9414;DHT22;4746;35.664;139.738;2023-01-15T08:50:20;11.20;99.90
9414;DHT22;4746;35.664;139.738;2023-01-15T08:52:47;11.10;99.90
9414;DHT22;4746;35.664;139.738;2023-01-15T08:55:15;11.00;99.90
9414;DHT22;4746;35.664;139.738;2023-01-15T08:57:42;10.90;99.90
9414;DHT22;4746;35.664;139.738;2023-01-15T09:00:10;10.90;99.90
9414;DHT22;4746;35.664;139.738;2023-01-15T09:02:38;10.90;99.90
9414;DHT22;4746;35.664;139.738;2023-01-15T09:05:06;10.80;99.90
9414;DHT22;4746;35.664;139.738;2023-01-15T09:07:34;10.70;99.90
9414;DHT22;4746;35.664;139.738;2023-01-15T09:10:02;10.70;99.90
9414;DHT22;4746;35.664;139.738;2023-01-15T09:12:30;10.70;99.90
9414;DHT22;4746;35.664;139.738;2023-01-15T09:14:58;10.60;99.90
9414;DHT22;4746;35.664;139.738;2023-01-15T09:17:27;10.60;99.90
9414;DHT22;4746;35.664;139.738;2023-01-15T09:19:54;10.60;99.90
9414;DHT22;4746;35.664;139.738;2023-01-15T09:22:22;10.60;99.90
9414;DHT22;4746;35.664;139.738;2023-01-15T09:24:53;10.50;99.90
9414;DHT22;4746;35.664;139.738;2023-01-15T09:27:20;10.50;99.90
9414;DHT22;4746;35.664;139.738;2023-01-15T09:29:49;10.50;99.90
9414;DHT22;4746;35.664;139.738;2023-01-15T09:32:17;10.50;99.90
9414;DHT22;4746;35.664;139.738;2023-01-15T09:34:46;10.40;99.90
9414;DHT22;4746;35.664;139.738;2023-01-15T09:37:13;10.40;99.90
9414;DHT22;4746;35.664;139.738;2023-01-15T09:39:41;10.40;99.90
9414;DHT22;4746;35.664;139.738;2023-01-15T09:42:28;10.40;99.90
9414;DHT22;4746;35.664;139.738;2023-01-15T09:48:02;10.40;99.90
9414;DHT22;4746;35.664;139.738;2023-01-15T09:51:01;10.30;99.90
9414;DHT22;4746;35.664;139.738;2023-01-15T09:56:39;10.30;99.90
9414;DHT22;4746;35.664;139.738;2023-01-15T09:59:37;10.20;99.90
9414;DHT22;4746;35.664;139.738;2023-01-15T10:02:20;10.20;99.90
9414;DHT22;4746;35.664;139.738;2023-01-15T10:16:24;10.20;99.90
9414;DHT22;4746;35.664;139.738;2023-01-15T10:18:53;10.10;99.90
9414;DHT22;4746;35.664;139.738;2023-01-15T10:21:31;10.20;99.90
9414;DHT22;4746;35.664;139.738;2023-01-15T10:27:21;10.10;99.90
9414;DHT22;4746;35.664;139.738;2023-01-15T10:30:04;10.20;99.90
9414;DHT22;4746;35.664;139.738;2023-01-15T10:32:48;10.20;99.90
9414;DHT22;4746;35.664;139.738;2023-01-15T10:38:32;10.20;99.90
9414;DHT22;4746;35.664;139.738;2023-01-15T10:47:14;10.10;99.90
9414;DHT22;4746;35.664;139.738;2023-01-15T10:49:48;10.00;99.90
9414;DHT22;4746;35.664;139.738;2023-01-15T10:52:34;10.10;99.90
9414;DHT22;4746;35.664;139.738;2023-01-15T10:55:26;10.10;99.90
9414;DHT22;4746;35.664;139.738;2023-01-15T10:58:32;10.10;99.90
9414;DHT22;4746;35.664;139.738;2023-01-15T11:01:25;10.10;99.90
9414;DHT22;4746;35.664;139.738;2023-01-15T11:03:53;9.90;99.90
9414;DHT22;4746;35.664;139.738;2023-01-15T11:06:22;10.00;99.90
9414;DHT22;4746;35.664;139.738;2023-01-15T11:08:55;10.00;99.90
9414;DHT22;4746;35.664;139.738;2023-01-15T11:11:45;10.00;99.90
9414;DHT22;4746;35.664;139.738;2023-01-15T11:20:42;9.90;99.90
9414;DHT22;4746;35.664;139.738;2023-01-15T11:23:22;9.90;99.90
9414;DHT22;4746;35.664;139.738;2023-01-15T11:25:55;9.90;99.90
9414;DHT22;4746;35.664;139.738;2023-01-15T11:28:32;9.90;99.90
9414;DHT22;4746;35.664;139.738;2023-01-15T11:31:06;9.90;99.90
9414;DHT22;4746;35.664;139.738;2023-01-15T11:33:35;10.00;99.90
9414;DHT22;4746;35.664;139.738;2023-01-15T11:36:06;10.00;99.90
9414;DHT22;4746;35.664;139.738;2023-01-15T11:38:48;10.00;99.90
9414;DHT22;4746;35.664;139.738;2023-01-15T11:41:34;10.00;99.90
9414;DHT22;4746;35.664;139.738;2023-01-15T11:44:22;10.00;99.90
9414;DHT22;4746;35.664;139.738;2023-01-15T11:47:12;9.90;99.90
9414;DHT22;4746;35.664;139.738;2023-01-15T11:50:01;9.90;99.90
9414;DHT22;4746;35.664;139.738;2023-01-15T11:53:03;9.80;99.90
9414;DHT22;4746;35.664;139.738;2023-01-15T11:55:32;9.80;99.90
9414;DHT22;4746;35.664;139.738;2023-01-15T11:58:00;9.90;99.90
9414;DHT22;4746;35.664;139.738;2023-01-15T12:00:32;10.00;99.90
9414;DHT22;4746;35.664;139.738;2023-01-15T12:03:14;10.00;99.90
9414;DHT22;4746;35.664;139.738;2023-01-15T12:05:59;10.10;99.90
9414;DHT22;4746;35.664;139.738;2023-01-15T12:08:42;10.20;99.90
9414;DHT22;4746;35.664;139.738;2023-01-15T12:17:12;10.50;99.90
9414;DHT22;4746;35.664;139.738;2023-01-15T12:28:58;10.80;99.90
9414;DHT22;4746;35.664;139.738;2023-01-15T12:31:37;10.90;99.90
9414;DHT22;4746;35.664;139.738;2023-01-15T12:34:53;11.00;99.90
9414;DHT22;4746;35.664;139.738;2023-01-15T12:37:37;11.10;99.90
9414;DHT22;4746;35.664;139.738;2023-01-15T12:40:44;11.00;99.90
9414;DHT22;4746;35.664;139.738;2023-01-15T12:43:25;10.90;99.90
9414;DHT22;4746;35.664;139.738;2023-01-15T12:46:26;10.80;99.90
9414;DHT22;4746;35.664;139.738;2023-01-15T12:49:10;10.70;99.90
9414;DHT22;4746;35.664;139.738;2023-01-15T12:52:04;10.80;99.90
9414;DHT22;4746;35.664;139.738;2023-01-15T12:54:51;10.80;99.90
9414;DHT22;4746;35.664;139.738;2023-01-15T12:58:01;10.80;99.90
9414;DHT22;4746;35.664;139.738;2023-01-15T13:00:42;10.70;99.90
9414;DHT22;4746;35.664;139.738;2023-01-15T13:03:31;10.70;99.90
9414;DHT22;4746;35.664;139.738;2023-01-15T13:06:11;10.60;99.90
9414;DHT22;4746;35.664;139.738;2023-01-15T13:11:52;10.50;99.90
9414;DHT22;4746;35.664;139.738;2023-01-15T13:14:20;10.40;99.90
9414;DHT22;4746;35.664;139.738;2023-01-15T13:17:01;10.40;99.90
9414;DHT22;4746;35.664;139.738;2023-01-15T13:22:25;10.40;99.90
9414;DHT22;4746;35.664;139.738;2023-01-15T13:28:23;10.30;99.90
9414;DHT22;4746;35.664;139.738;2023-01-15T13:33:54;10.40;99.90
9414;DHT22;4746;35.664;139.738;2023-01-15T13:36:31;10.30;99.90
9414;DHT22;4746;35.664;139.738;2023-01-15T13:39:06;10.30;99.90
9414;DHT22;4746;35.664;139.738;2023-01-15T13:41:50;10.30;99.90
9414;DHT22;4746;35.664;139.738;2023-01-15T13:44:49;10.40;99.90
9414;DHT22;4746;35.664;139.738;2023-01-15T13:47:22;10.30;99.90
9414;DHT22;4746;35.664;139.738;2023-01-15T13:49:59;10.30;99.90
9414;DHT22;4746;35.664;139.738;2023-01-15T13:52:35;10.30;99.90
9414;DHT22;4746;35.664;139.738;2023-01-15T13:57:42;10.30;99.90
9414;DHT22;4746;35.664;139.738;2023-01-15T14:00:31;10.30;99.90
9414;DHT22;4746;35.664;139.738;2023-01-15T14:06:44;10.20;99.90
9414;DHT22;4746;35.664;139.738;2023-01-15T14:09:27;10.20;99.90
9414;DHT22;4746;35.664;139.738;2023-01-15T14:19:11;10.20;99.90
9414;DHT22;4746;35.664;139.738;2023-01-15T14:36:53;9.90;99.90
9414;DHT22;4746;35.664;139.738;2023-01-15T14:39:49;9.90;99.90
9414;DHT22;4746;35.664;139.738;2023-01-15T14:42:36;9.90;99.90
9414;DHT22;4746;35.664;139.738;2023-01-15T14:45:40;9.90;99.90
9414;DHT22;4746;35.664;139.738;2023-01-15T14:48:39;9.90;99.90
9414;DHT22;4746;35.664;139.738;2023-01-15T14:54:06;9.70;99.90
9414;DHT22;4746;35.664;139.738;2023-01-15T14:56:48;9.60;99.90
9414;DHT22;4746;35.664;139.738;2023-01-15T15:00:19;9.50;99.90
9414;DHT22;4746;35.664;139.738;2023-01-15T15:02:38;9.40;99.90
9414;DHT22;4746;35.664;139.738;2023-01-15T15:05:15;9.40;99.90
9414;DHT22;4746;35.664;139.738;2023-01-15T15:07:48;9.40;99.90
9414;DHT22;4746;35.664;139.738;2023-01-15T15:10:25;9.30;99.90
9414;DHT22;4746;35.664;139.738;2023-01-15T15:15:54;9.30;99.90
9414;DHT22;4746;35.664;139.738;2023-01-15T15:18:44;9.30;99.90
9414;DHT22;4746;35.664;139.738;2023-01-15T15:21:37;9.30;99.90
9414;DHT22;4746;35.664;139.738;2023-01-15T15:24:25;9.30;99.90
9414;DHT22;4746;35.664;139.738;2023-01-15T15:27:22;9.20;99.90
9414;DHT22;4746;35.664;139.738;2023-01-15T15:29:50;9.20;99.90
9414;DHT22;4746;35.664;139.738;2023-01-15T15:32:30;9.20;99.90
9414;DHT22;4746;35.664;139.738;2023-01-15T15:35:28;9.20;99.90
9414;DHT22;4746;35.664;139.738;2023-01-15T15:37:59;9.20;99.90
9414;DHT22;4746;35.664;139.738;2023-01-15T15:40:34;9.20;99.90
9414;DHT22;4746;35.664;139.738;2023-01-15T15:43:16;9.20;99.90
9414;DHT22;4746;35.664;139.738;2023-01-15T15:46:17;9.10;99.90
9414;DHT22;4746;35.664;139.738;2023-01-15T15:49:10;9.10;99.90
9414;DHT22;4746;35.664;139.738;2023-01-15T15:51:49;9.00;99.90
9414;DHT22;4746;35.664;139.738;2023-01-15T15:54:28;9.00;99.90
9414;DHT22;4746;35.664;139.738;2023-01-15T15:59:57;8.90;99.90
9414;DHT22;4746;35.664;139.738;2023-01-15T16:02:38;8.90;99.90
9414;DHT22;4746;35.664;139.738;2023-01-15T16:05:20;9.00;99.90
9414;DHT22;4746;35.664;139.738;2023-01-15T16:07:49;9.00;99.90
9414;DHT22;4746;35.664;139.738;2023-01-15T16:12:51;8.90;99.90
9414;DHT22;4746;35.664;139.738;2023-01-15T16:15:32;8.80;99.90
9414;DHT22;4746;35.664;139.738;2023-01-15T16:18:04;8.80;99.90
9414;DHT22;4746;35.664;139.738;2023-01-15T16:20:49;8.70;99.90
9414;DHT22;4746;35.664;139.738;2023-01-15T16:23:24;8.70;99.90
9414;DHT22;4746;35.664;139.738;2023-01-15T16:28:42;8.70;99.90
9414;DHT22;4746;35.664;139.738;2023-01-15T16:31:15;8.70;99.90
9414;DHT22;4746;35.664;139.738;2023-01-15T16:33:45;8.80;99.90
9414;DHT22;4746;35.664;139.738;2023-01-15T16:36:19;8.80;99.90
9414;DHT22;4746;35.664;139.738;2023-01-15T16:38:50;8.90;99.90
9414;DHT22;4746;35.664;139.738;2023-01-15T16:41:24;8.80;99.90
9414;DHT22;4746;35.664;139.738;2023-01-15T16:44:01;8.80;99.90
9414;DHT22;4746;35.664;139.738;2023-01-15T16:46:37;8.80;99.90
9414;DHT22;4746;35.664;139.738;2023-01-15T16:51:50;8.80;99.90
9414;DHT22;4746;35.664;139.738;2023-01-15T16:57:02;8.80;99.90
9414;DHT22;4746;35.664;139.738;2023-01-15T17:02:14;8.80;99.90
9414;DHT22;4746;35.664;139.738;2023-01-15T17:04:47;8.80;99.90
9414;DHT22;4746;35.664;139.738;2023-01-15T17:07:22;8.80;99.90
9414;DHT22;4746;35.664;139.738;2023-01-15T17:10:16;8.80;99.90
9414;DHT22;4746;35.664;139.738;2023-01-15T17:12:52;8.80;99.90
9414;DHT22;4746;35.664;139.738;2023-01-15T17:15:28;8.80;99.90
9414;DHT22;4746;35.664;139.738;2023-01-15T17:18:19;8.80;99.90
9414;DHT22;4746;35.664;139.738;2023-01-15T17:20:51;8.80;99.90
9414;DHT22;4746;35.664;139.738;2023-01-15T17:23:23;8.80;99.90
9414;DHT22;4746;35.664;139.738;2023-01-15T17:25:54;8.80;99.90
9414;DHT22;4746;35.664;139.738;2023-01-15T17:28:22;8.80;99.90
9414;DHT22;4746;35.664;139.738;2023-01-15T17:30:52;8.70;99.90
9414;DHT22;4746;35.664;139.738;2023-01-15T17:33:25;8.70;99.90
9414;DHT22;4746;35.664;139.738;2023-01-15T17:35:53;8.70;99.90
9414;DHT22;4746;35.664;139.738;2023-01-15T17:38:23;8.70;99.90
9414;DHT22;4746;35.664;139.738;2023-01-15T17:40:51;8.70;99.90
9414;DHT22;4746;35.664;139.738;2023-01-15T17:43:21;8.70;99.90
9414;DHT22;4746;35.664;139.738;2023-01-15T17:45:51;8.70;99.90
9414;DHT22;4746;35.664;139.738;2023-01-15T17:48:20;8.70;99.90
9414;DHT22;4746;35.664;139.738;2023-01-15T17:50:48;8.80;99.90
9414;DHT22;4746;35.664;139.738;2023-01-15T17:53:16;8.70;99.90
9414;DHT22;4746;35.664;139.738;2023-01-15T17:55:44;8.80;99.90
9414;DHT22;4746;35.664;139.738;2023-01-15T17:58:30;8.80;99.90
9414;DHT22;4746;35.664;139.738;2023-01-15T18:01:23;8.90;99.90
9414;DHT22;4746;35.664;139.738;2023-01-15T18:04:17;8.90;99.90
9414;DHT22;4746;35.664;139.738;2023-01-15T18:07:18;8.90;99.90
9414;DHT22;4746;35.664;139.738;2023-01-15T18:09:49;8.90;99.90
9414;DHT22;4746;35.664;139.738;2023-01-15T18:12:19;8.90;99.90
9414;DHT22;4746;35.664;139.738;2023-01-15T18:14:47;8.90;99.90
9414;DHT22;4746;35.664;139.738;2023-01-15T18:17:15;8.80;99.90
9414;DHT22;4746;35.664;139.738;2023-01-15T18:19:43;8.80;99.90
9414;DHT22;4746;35.664;139.738;2023-01-15T18:22:11;8.90;99.90
9414;DHT22;4746;35.664;139.738;2023-01-15T18:24:40;8.90;99.90
9414;DHT22;4746;35.664;139.738;2023-01-15T18:27:07;8.90;99.90
9414;DHT22;4746;35.664;139.738;2023-01-15T18:29:37;8.90;99.90
9414;DHT22;4746;35.664;139.738;2023-01-15T18:32:08;8.90;99.90
9414;DHT22;4746;35.664;139.738;2023-01-15T18:34:36;8.80;99.90
9414;DHT22;4746;35.664;139.738;2023-01-15T18:37:04;8.80;99.90
9414;DHT22;4746;35.664;139.738;2023-01-15T18:39:32;8.80;99.90
9414;DHT22;4746;35.664;139.738;2023-01-15T18:42:02;8.70;99.90
9414;DHT22;4746;35.664;139.738;2023-01-15T18:44:29;8.80;99.90
9414;DHT22;4746;35.664;139.738;2023-01-15T18:47:16;8.70;99.90
9414;DHT22;4746;35.664;139.738;2023-01-15T18:49:44;8.70;99.90
9414;DHT22;4746;35.664;139.738;2023-01-15T18:52:14;8.70;99.90
9414;DHT22;4746;35.664;139.738;2023-01-15T18:55:00;8.70;99.90
9414;DHT22;4746;35.664;139.738;2023-01-15T18:57:28;8.80;99.90